Carnival Miracle — H3VS — position and weather

sailwx.info

Track history (hours):
 
Tides and Currents Weather Stations Pressure Air Temp Water Temp Dewpoint Dewpoint Depression Visibility Wind Speed Wind Dir Waves Ship Positions

Carnival Miracle

Operator: Carnival Cruise Lines

Last reported at 2018-Feb-22 02:00 UTC. Time now 2018-Feb-22 07:12 UTC.
Position N 19°00' W 087°06'.

Type: Ship. MMSI: 35437000.

Wind from 100 at 20 knots

Barometer 1024.0 mb
Air temperature 26.0 ° C
Visibility: greater than 10.8 NM
Dewpoint 23.2 ° C
Water temperature 25.0 ° C

Date/timePositionNaut miles runAvg speedWind from/ knotsBaromVisibWave heightAir tempDewpointWater temp
2018-Feb-22 02:00N 19°00' W 087°06'93 7.7 100 / 201024.010.8 26.023.225.0
2018-Feb-21 14:00N 17°36' W 087°48'104 8.6 110 / 251023.010.8 27.022.825.0
2018-Feb-21 02:00N 16°24' W 086°30'34410.1 130 / 481019.010.8 26.020.225.0
2018-Feb-19 16:00N 19°18' W 081°18'34912.5 090 / 101020.027.0 28.025.327.0
2018-Feb-18 12:00N 24°30' W 084°06'14719.6 110 / 191024.010.8 24.022.625.0
2018-Feb-18 04:30N 26°51' W 083°19'3517.6
2018-Feb-18 02:32N 27°23' W 083°06'117.4
2018-Feb-18 02:27N 27°25' W 083°05'917.2
2018-Feb-18 01:57N 27°33' W 083°02'1413.9
2018-Feb-18 00:55N 27°37' W 082°46'715.6
2018-Feb-18 00:26N 27°38' W 082°38'715.3
2018-Feb-18 00:01N 27°42' W 082°33'612.8
2018-Feb-17 23:30N 27°48' W 082°29'611.6
2018-Feb-17 23:00N 27°53' W 082°26'3 5.6
2018-Feb-17 22:30N 27°56' W 082°27'1 1.6
2018-Feb-17 22:00N 27°57' W 082°27'0 0.0
2018-Feb-17 21:30N 27°57' W 082°27'0 0.0
2018-Feb-17 21:00N 27°57' W 082°27'0 0.0
2018-Feb-17 20:30N 27°57' W 082°27'0 0.0
2018-Feb-17 19:56N 27°57' W 082°27'0 0.0
2018-Feb-17 19:29N 27°57' W 082°27'0 0.0
2018-Feb-17 18:59N 27°57' W 082°27'0 0.0
2018-Feb-17 18:29N 27°57' W 082°27'0 0.0
2018-Feb-17 17:59N 27°57' W 082°27'0 0.0
2018-Feb-17 17:28N 27°57' W 082°27'0 0.0
2018-Feb-17 16:58N 27°57' W 082°27'0 0.0
2018-Feb-17 16:28N 27°57' W 082°27'0 0.0
2018-Feb-17 15:58N 27°57' W 082°27'0 0.0
2018-Feb-17 15:31N 27°57' W 082°27'0 0.0
2018-Feb-17 15:00N 27°57' W 082°27'0 0.0
2018-Feb-17 14:30N 27°57' W 082°27'0 0.0
2018-Feb-17 14:00N 27°57' W 082°27'0 0.0
2018-Feb-17 13:30N 27°57' W 082°27'0 0.0
2018-Feb-17 12:59N 27°57' W 082°27'0 0.0
2018-Feb-17 12:29N 27°57' W 082°27'0 0.0
2018-Feb-17 11:59N 27°57' W 082°27'0 0.0
2018-Feb-17 11:29N 27°57' W 082°27'0 0.0
2018-Feb-17 10:59N 27°57' W 082°27'0 0.0
2018-Feb-17 10:28N 27°57' W 082°27'0 0.0
2018-Feb-17 09:58N 27°57' W 082°27'0 0.0
2018-Feb-17 09:30N 27°57' W 082°27'0 0.6
2018-Feb-17 09:00N 27°57' W 082°27'2 3.4
2018-Feb-17 08:30N 27°55' W 082°27'3 6.4
2018-Feb-17 08:00N 27°52' W 082°27'510.2
2018-Feb-17 07:30N 27°48' W 082°30'611.2
2018-Feb-17 07:00N 27°43' W 082°33'815.8
2018-Feb-17 06:31N 27°37' W 082°39'915.1
2018-Feb-17 05:53N 27°36' W 082°50'613.9
2018-Feb-17 05:26N 27°36' W 082°57'20612.5
2018-Feb-16 13:00N 24°30' W 084°36'26918.9 110 / 201023.0 25.022.227.0
2018-Feb-15 22:49N 20°35' W 086°58'517.7
2018-Feb-15 22:30N 20°30' W 086°59'2 3.3
2018-Feb-15 22:00N 20°29' W 086°59'0 0.0
2018-Feb-15 21:30N 20°29' W 086°59'0 0.0
2018-Feb-15 20:57N 20°29' W 086°59'0 0.0
2018-Feb-15 20:29N 20°29' W 086°59'0 0.0
2018-Feb-15 19:59N 20°29' W 086°59'0 0.0
2018-Feb-15 19:29N 20°29' W 086°59'0 0.0
2018-Feb-15 18:59N 20°29' W 086°59'0 0.0
2018-Feb-15 18:26N 20°29' W 086°59'0 0.0
2018-Feb-15 17:58N 20°29' W 086°59'0 0.0
2018-Feb-15 17:25N 20°29' W 086°59'0 0.0
2018-Feb-15 16:58N 20°29' W 086°59'0 0.0
2018-Feb-15 16:28N 20°29' W 086°59'0 0.0
2018-Feb-15 16:01N 20°29' W 086°59'0 0.0
2018-Feb-15 15:27N 20°29' W 086°59'0 0.0
2018-Feb-15 15:00N 20°29' W 086°59'0 0.0
2018-Feb-15 14:30N 20°29' W 086°59'0 0.0
2018-Feb-15 14:00N 20°29' W 086°59'0 0.0
2018-Feb-15 13:29N 20°29' W 086°59'0 0.0
2018-Feb-15 12:59N 20°29' W 086°59'0 0.0
2018-Feb-15 12:30N 20°29' W 086°59'2 4.6
2018-Feb-15 12:00N 20°30' W 087°00'3 6.7
2018-Feb-15 11:30N 20°30' W 087°04'259 5.4
2018-Feb-13 12:00N 16°18' W 086°00'   080 / 161021.0 27.025.727.0
Track history (hours):
 
Tides and Currents Weather Stations Pressure Air Temp Water Temp Dewpoint Dewpoint Depression Visibility Wind Speed Wind Dir Waves Ship Positions

Carnival Miracle

Operator: Carnival Cruise Lines

Last reported at 2018-Feb-22 02:00 UTC. Time now 2018-Feb-22 07:12 UTC.
Position N 19°00' W 087°06'.

Type: Ship. MMSI: 35437000.

Wind from 100 at 20 knots

Barometer 1024.0 mb
Air temperature 26.0 ° C
Visibility: greater than 10.8 NM
Dewpoint 23.2 ° C
Water temperature 25.0 ° C

Date/timePositionNaut miles runAvg speedWind from/ knotsBaromVisibWave heightAir tempDewpointWater temp
2018-Feb-22 02:00N 19°00' W 087°06'93 7.7 100 / 201024.010.8 26.023.225.0
2018-Feb-21 14:00N 17°36' W 087°48'104 8.6 110 / 251023.010.8 27.022.825.0
2018-Feb-21 02:00N 16°24' W 086°30'34410.1 130 / 481019.010.8 26.020.225.0
2018-Feb-19 16:00N 19°18' W 081°18'34912.5 090 / 101020.027.0 28.025.327.0
2018-Feb-18 12:00N 24°30' W 084°06'14719.6 110 / 191024.010.8 24.022.625.0
2018-Feb-18 04:30N 26°51' W 083°19'3517.6
2018-Feb-18 02:32N 27°23' W 083°06'117.4
2018-Feb-18 02:27N 27°25' W 083°05'917.2
2018-Feb-18 01:57N 27°33' W 083°02'1413.9
2018-Feb-18 00:55N 27°37' W 082°46'715.6
2018-Feb-18 00:26N 27°38' W 082°38'715.3
2018-Feb-18 00:01N 27°42' W 082°33'612.8
2018-Feb-17 23:30N 27°48' W 082°29'611.6
2018-Feb-17 23:00N 27°53' W 082°26'3 5.6
2018-Feb-17 22:30N 27°56' W 082°27'1 1.6
2018-Feb-17 22:00N 27°57' W 082°27'0 0.0
2018-Feb-17 21:30N 27°57' W 082°27'0 0.0
2018-Feb-17 21:00N 27°57' W 082°27'0 0.0
2018-Feb-17 20:30N 27°57' W 082°27'0 0.0
2018-Feb-17 19:56N 27°57' W 082°27'0 0.0
2018-Feb-17 19:29N 27°57' W 082°27'0 0.0
2018-Feb-17 18:59N 27°57' W 082°27'0 0.0
2018-Feb-17 18:29N 27°57' W 082°27'0 0.0
2018-Feb-17 17:59N 27°57' W 082°27'0 0.0
2018-Feb-17 17:28N 27°57' W 082°27'0 0.0
2018-Feb-17 16:58N 27°57' W 082°27'0 0.0
2018-Feb-17 16:28N 27°57' W 082°27'0 0.0
2018-Feb-17 15:58N 27°57' W 082°27'0 0.0
2018-Feb-17 15:31N 27°57' W 082°27'0 0.0
2018-Feb-17 15:00N 27°57' W 082°27'0 0.0
2018-Feb-17 14:30N 27°57' W 082°27'0 0.0
2018-Feb-17 14:00N 27°57' W 082°27'0 0.0
2018-Feb-17 13:30N 27°57' W 082°27'0 0.0
2018-Feb-17 12:59N 27°57' W 082°27'0 0.0
2018-Feb-17 12:29N 27°57' W 082°27'0 0.0
2018-Feb-17 11:59N 27°57' W 082°27'0 0.0
2018-Feb-17 11:29N 27°57' W 082°27'0 0.0
2018-Feb-17 10:59N 27°57' W 082°27'0 0.0
2018-Feb-17 10:28N 27°57' W 082°27'0 0.0
2018-Feb-17 09:58N 27°57' W 082°27'0 0.0
2018-Feb-17 09:30N 27°57' W 082°27'0 0.6
2018-Feb-17 09:00N 27°57' W 082°27'2 3.4
2018-Feb-17 08:30N 27°55' W 082°27'3 6.4
2018-Feb-17 08:00N 27°52' W 082°27'510.2
2018-Feb-17 07:30N 27°48' W 082°30'611.2
2018-Feb-17 07:00N 27°43' W 082°33'815.8
2018-Feb-17 06:31N 27°37' W 082°39'915.1
2018-Feb-17 05:53N 27°36' W 082°50'613.9
2018-Feb-17 05:26N 27°36' W 082°57'20612.5
2018-Feb-16 13:00N 24°30' W 084°36'26918.9 110 / 201023.0 25.022.227.0
2018-Feb-15 22:49N 20°35' W 086°58'517.7
2018-Feb-15 22:30N 20°30' W 086°59'2 3.3
2018-Feb-15 22:00N 20°29' W 086°59'0 0.0
2018-Feb-15 21:30N 20°29' W 086°59'0 0.0
2018-Feb-15 20:57N 20°29' W 086°59'0 0.0
2018-Feb-15 20:29N 20°29' W 086°59'0 0.0
2018-Feb-15 19:59N 20°29' W 086°59'0 0.0
2018-Feb-15 19:29N 20°29' W 086°59'0 0.0
2018-Feb-15 18:59N 20°29' W 086°59'0 0.0
2018-Feb-15 18:26N 20°29' W 086°59'0 0.0
2018-Feb-15 17:58N 20°29' W 086°59'0 0.0
2018-Feb-15 17:25N 20°29' W 086°59'0 0.0
2018-Feb-15 16:58N 20°29' W 086°59'0 0.0
2018-Feb-15 16:28N 20°29' W 086°59'0 0.0
2018-Feb-15 16:01N 20°29' W 086°59'0 0.0
2018-Feb-15 15:27N 20°29' W 086°59'0 0.0
2018-Feb-15 15:00N 20°29' W 086°59'0 0.0
2018-Feb-15 14:30N 20°29' W 086°59'0 0.0
2018-Feb-15 14:00N 20°29' W 086°59'0 0.0
2018-Feb-15 13:29N 20°29' W 086°59'0 0.0
2018-Feb-15 12:59N 20°29' W 086°59'0 0.0
2018-Feb-15 12:30N 20°29' W 086°59'2 4.6
2018-Feb-15 12:00N 20°30' W 087°00'3 6.7
2018-Feb-15 11:30N 20°30' W 087°04'259 5.4
2018-Feb-13 12:00N 16°18' W 086°00'   080 / 161021.0 27.025.727.0

Dump ship's entire track history